Time;durP1;ratioP1;P1;durP2;ratioP2;P2;SDS_P1;SDS_P2;PMS_P1;PMS_P2;Temp;Humidity;BMP_temperature;BMP_pressure;BME280_temperature;BME280_humidity;BME280_pressure;Samples;Min_cycle;Max_cycle;Signal;HPM_P1;HPM_P2
2022/04/05 00:01:20;;;;;;;2.08;1.73;;;7.90;99.90;;;;;;5012550;28;20060;-75
2022/04/05 00:03:46;;;;;;;3.22;1.77;;;7.90;99.90;;;;;;4996272;28;20479;-74
2022/04/05 00:06:11;;;;;;;3.90;1.52;;;7.80;99.90;;;;;;4995825;28;20045;-74
2022/04/05 00:08:37;;;;;;;3.72;1.63;;;7.90;99.90;;;;;;5014288;28;20097;-74
2022/04/05 00:11:02;;;;;;;4.68;2.88;;;7.80;99.90;;;;;;5014517;28;20807;-74
2022/04/05 00:13:28;;;;;;;2.60;1.90;;;7.80;99.90;;;;;;4996822;28;20944;-76
2022/04/05 00:15:53;;;;;;;3.50;2.05;;;7.80;99.90;;;;;;4997771;28;20057;-75
2022/04/05 00:18:19;;;;;;;4.55;1.40;;;7.90;99.90;;;;;;4996813;28;20058;-75
2022/04/05 00:20:45;;;;;;;3.25;1.73;;;7.90;99.90;;;;;;4997553;28;20053;-75
2022/04/05 00:23:11;;;;;;;2.35;1.27;;;7.80;99.90;;;;;;4997772;28;20045;-75
2022/04/05 00:25:36;;;;;;;3.22;1.70;;;7.80;99.90;;;;;;4997336;28;20061;-75
2022/04/05 00:28:03;;;;;;;5.70;1.70;;;7.90;99.90;;;;;;5018543;28;20050;-75
2022/04/05 00:30:29;;;;;;;3.20;1.58;;;7.80;99.90;;;;;;5023174;28;20042;-75
2022/04/05 00:32:54;;;;;;;3.47;1.58;;;7.80;99.90;;;;;;4995667;28;20820;-75
2022/04/05 00:35:21;;;;;;;3.38;1.50;;;7.80;99.90;;;;;;4995574;28;20050;-76
2022/04/05 00:37:47;;;;;;;7.72;2.35;;;7.80;99.90;;;;;;5002724;28;20064;-75
2022/04/05 00:40:13;;;;;;;3.92;2.40;;;7.80;99.90;;;;;;4978033;28;20910;-76
2022/04/05 00:42:39;;;;;;;3.80;1.80;;;7.80;99.90;;;;;;4998087;28;20141;-76
2022/04/05 00:45:06;;;;;;;6.93;1.52;;;7.80;99.90;;;;;;5027888;28;20081;-76
2022/04/05 00:47:32;;;;;;;3.85;1.63;;;7.80;99.90;;;;;;5015306;28;20550;-76
2022/04/05 00:49:59;;;;;;;4.82;2.42;;;7.80;99.90;;;;;;5014252;28;20056;-76
2022/04/05 00:52:25;;;;;;;4.47;1.65;;;7.80;99.90;;;;;;4997009;28;20131;-76
2022/04/05 00:54:52;;;;;;;4.00;1.60;;;7.80;99.90;;;;;;4996144;28;20794;-76
2022/04/05 00:57:23;;;;;;;4.60;1.52;;;7.80;99.90;;;;;;4996366;28;20042;-75
2022/04/05 00:59:54;;;;;;;8.52;1.98;;;7.80;99.90;;;;;;4997782;28;20060;-76
2022/04/05 01:02:21;;;;;;;4.55;1.25;;;7.80;99.90;;;;;;5014586;28;20450;-76
2022/04/05 01:04:48;;;;;;;7.15;1.60;;;7.80;99.90;;;;;;5015962;28;20103;-77
2022/04/05 01:07:16;;;;;;;2.75;1.40;;;7.70;99.90;;;;;;5015972;28;20045;-76
2022/04/05 01:09:43;;;;;;;4.00;1.55;;;7.80;99.90;;;;;;5015456;28;20068;-76
2022/04/05 01:12:12;;;;;;;2.67;1.52;;;7.80;99.90;;;;;;5017537;28;20050;-76
2022/04/05 01:14:38;;;;;;;6.97;2.15;;;7.80;99.90;;;;;;5001617;28;20512;-76
2022/04/05 01:17:05;;;;;;;3.60;1.80;;;7.80;99.90;;;;;;5001672;28;20665;-76
2022/04/05 01:19:31;;;;;;;4.03;1.90;;;7.80;99.90;;;;;;5018870;28;20693;-76
2022/04/05 01:21:58;;;;;;;8.85;3.58;;;7.80;99.90;;;;;;5018777;28;20572;-76
2022/04/05 01:24:24;;;;;;;2.60;1.30;;;7.80;99.90;;;;;;5019273;28;20113;-76
2022/04/05 01:26:55;;;;;;;3.30;1.23;;;7.80;99.90;;;;;;5018808;28;20045;-76
2022/04/05 01:29:23;;;;;;;4.05;1.23;;;7.80;99.90;;;;;;5018341;28;20107;-76
2022/04/05 01:31:54;;;;;;;6.20;1.73;;;7.80;99.90;;;;;;5001025;28;20049;-76
2022/04/05 01:34:22;;;;;;;6.40;1.95;;;7.70;99.90;;;;;;5000744;28;20057;-76
2022/04/05 01:36:51;;;;;;;3.10;1.27;;;7.70;99.90;;;;;;5017958;28;20045;-77
2022/04/05 01:39:19;;;;;;;5.18;2.05;;;7.70;99.90;;;;;;5004204;28;20045;-76
2022/04/05 01:41:45;;;;;;;2.60;1.73;;;7.80;99.90;;;;;;5007110;28;20056;-77
2022/04/05 01:44:13;;;;;;;4.07;2.15;;;7.70;99.90;;;;;;5038164;28;20073;-77
2022/04/05 01:46:39;;;;;;;2.75;1.15;;;7.70;99.90;;;;;;5038322;28;20052;-77
2022/04/05 01:49:10;;;;;;;3.08;1.35;;;7.70;99.90;;;;;;5038764;28;20056;-77
2022/04/05 01:51:37;;;;;;;5.07;1.63;;;7.70;99.90;;;;;;5037772;28;20056;-77
2022/04/05 01:54:07;;;;;;;4.32;1.52;;;7.70;99.90;;;;;;5038551;28;20052;-78
2022/04/05 01:56:33;;;;;;;5.07;1.77;;;7.70;99.90;;;;;;5019891;28;20059;-78
2022/04/05 01:59:00;;;;;;;6.13;2.10;;;7.70;99.90;;;;;;5019313;28;20843;-78
2022/04/05 02:01:26;;;;;;;4.63;1.50;;;7.70;99.90;;;;;;5038728;28;20060;-77
2022/04/05 02:03:51;;;;;;;1.77;1.27;;;7.70;99.90;;;;;;5020526;28;20058;-78
2022/04/05 02:06:17;;;;;;;9.02;3.85;;;7.70;99.90;;;;;;5039086;28;20160;-77
2022/04/05 02:08:42;;;;;;;8.38;2.22;;;7.70;99.90;;;;;;5038892;28;20077;-77
2022/04/05 02:11:08;;;;;;;9.43;2.20;;;7.70;99.90;;;;;;5037733;28;20057;-78
2022/04/05 02:13:33;;;;;;;6.55;2.47;;;7.70;99.90;;;;;;5019814;28;20045;-78
2022/04/05 02:16:03;;;;;;;5.93;1.75;;;7.70;99.90;;;;;;5011606;28;20038;-78
2022/04/05 02:18:29;;;;;;;2.58;1.50;;;7.70;99.90;;;;;;4998408;28;20381;-78
2022/04/05 02:20:55;;;;;;;8.57;3.33;;;7.70;99.90;;;;;;5016430;28;20152;-77
2022/04/05 02:23:21;;;;;;;2.47;1.80;;;7.60;99.90;;;;;;5017730;28;20045;-78
2022/04/05 02:25:46;;;;;;;3.72;1.70;;;7.60;99.90;;;;;;5016826;28;20045;-78
2022/04/05 02:28:12;;;;;;;3.65;2.03;;;7.70;99.90;;;;;;5017147;28;20877;-78
2022/04/05 02:30:41;;;;;;;7.28;2.60;;;7.60;99.90;;;;;;4999843;28;20099;-77
2022/04/05 02:33:07;;;;;;;7.00;2.67;;;7.60;99.90;;;;;;5016599;28;20057;-78
2022/04/05 02:35:33;;;;;;;4.57;1.90;;;7.60;99.90;;;;;;5017460;28;20060;-78
2022/04/05 02:38:00;;;;;;;4.32;1.48;;;7.60;99.90;;;;;;5017573;28;20037;-78
2022/04/05 02:40:27;;;;;;;4.40;1.48;;;7.70;99.90;;;;;;4999488;28;20057;-78
2022/04/05 02:42:52;;;;;;;7.03;2.17;;;7.60;99.90;;;;;;5017640;28;20824;-78
2022/04/05 02:45:18;;;;;;;5.80;1.65;;;7.70;99.90;;;;;;5009551;28;20045;-78
2022/04/05 02:47:44;;;;;;;4.43;1.92;;;7.70;99.90;;;;;;5012984;28;20445;-78
2022/04/05 02:50:10;;;;;;;6.28;1.88;;;7.60;99.90;;;;;;5019829;28;20037;-78
2022/04/05 02:52:36;;;;;;;5.93;1.90;;;7.70;99.90;;;;;;5019552;28;20060;-79
2022/04/05 02:55:02;;;;;;;3.83;1.98;;;7.70;99.90;;;;;;5001787;28;20050;-79
2022/04/05 02:57:28;;;;;;;7.05;2.05;;;7.70;99.90;;;;;;4980181;28;20054;-79
2022/04/05 02:59:54;;;;;;;4.30;1.77;;;7.70;99.90;;;;;;4997722;28;20052;-78
2022/04/05 03:02:20;;;;;;;3.97;2.03;;;7.70;99.90;;;;;;5004172;28;20052;-78
2022/04/05 03:04:45;;;;;;;8.95;2.38;;;7.70;99.90;;;;;;4998987;28;20053;-79
2022/04/05 03:07:11;;;;;;;6.97;2.25;;;7.70;99.90;;;;;;4998618;28;20049;-79
2022/04/05 03:09:36;;;;;;;7.10;2.10;;;7.80;99.90;;;;;;5016623;28;20877;-78
2022/04/05 03:12:02;;;;;;;6.97;2.30;;;7.70;99.90;;;;;;5017391;28;20057;-79
2022/04/05 03:14:28;;;;;;;8.45;3.92;;;7.70;99.90;;;;;;4998414;28;20057;-78
2022/04/05 03:16:53;;;;;;;9.45;2.92;;;7.70;99.90;;;;;;4999282;28;20057;-79
2022/04/05 03:19:19;;;;;;;12.43;2.55;;;7.70;99.90;;;;;;5017197;28;20152;-78
2022/04/05 03:21:44;;;;;;;5.93;2.15;;;7.70;99.90;;;;;;5016748;28;20057;-78
2022/04/05 03:24:10;;;;;;;12.77;3.08;;;7.70;99.90;;;;;;5016574;28;20050;-79
2022/04/05 03:26:35;;;;;;;7.95;3.00;;;7.70;99.90;;;;;;4998368;28;20076;-79
2022/04/05 03:29:01;;;;;;;12.95;4.00;;;7.70;99.90;;;;;;5015659;28;20103;-79
2022/04/05 03:31:27;;;;;;;6.63;2.38;;;7.70;99.90;;;;;;5016364;28;20041;-79
2022/04/05 03:33:52;;;;;;;3.28;1.90;;;7.70;99.90;;;;;;5016310;28;20045;-79
2022/04/05 03:36:18;;;;;;;7.90;2.22;;;7.70;99.90;;;;;;5015249;28;20052;-78
2022/04/05 03:38:43;;;;;;;10.52;2.20;;;7.70;99.90;;;;;;5016262;28;20936;-79
2022/04/05 03:41:09;;;;;;;4.82;2.50;;;7.70;99.90;;;;;;4998820;28;20037;-79
2022/04/05 03:43:34;;;;;;;6.95;1.70;;;7.70;99.90;;;;;;4998485;28;20087;-79
2022/04/05 03:46:00;;;;;;;8.40;3.58;;;7.70;99.90;;;;;;5019722;28;20029;-79
2022/04/05 03:48:26;;;;;;;8.40;3.35;;;7.70;99.90;;;;;;5037152;28;20087;-79
2022/04/05 03:50:52;;;;;;;7.00;2.92;;;7.70;99.90;;;;;;5017688;28;20045;-80
2022/04/05 03:53:17;;;;;;;5.40;2.95;;;7.70;99.90;;;;;;5025451;28;20033;-79
2022/04/05 03:55:43;;;;;;;9.25;2.83;;;7.70;99.90;;;;;;4979112;28;20914;-79
2022/04/05 03:58:12;;;;;;;6.15;2.97;;;7.70;99.90;;;;;;4978527;28;20080;-79
2022/04/05 04:00:38;;;;;;;8.00;2.90;;;7.60;99.90;;;;;;4996870;28;20049;-79
2022/04/05 04:03:04;;;;;;;5.75;2.20;;;7.70;99.90;;;;;;4979003;28;20051;-79
2022/04/05 04:05:29;;;;;;;6.13;1.92;;;7.70;99.90;;;;;;4996002;28;20053;-79
2022/04/05 04:07:55;;;;;;;10.68;3.17;;;7.70;99.90;;;;;;4996761;28;20061;-79
2022/04/05 04:10:20;;;;;;;15.13;4.40;;;7.70;99.90;;;;;;4978146;28;20169;-79
2022/04/05 04:12:46;;;;;;;7.82;2.85;;;7.70;99.90;;;;;;4996185;28;20100;-79
2022/04/05 04:15:12;;;;;;;11.30;2.58;;;7.70;99.90;;;;;;4978130;28;20049;-78
2022/04/05 04:17:38;;;;;;;8.32;3.15;;;7.70;99.90;;;;;;4977752;28;20045;-79
2022/04/05 04:20:05;;;;;;;5.50;2.58;;;7.60;99.90;;;;;;4996230;28;20078;-79
2022/04/05 04:22:31;;;;;;;12.45;4.78;;;7.70;99.90;;;;;;4978723;28;20053;-79
2022/04/05 04:24:57;;;;;;;10.90;2.67;;;7.60;99.90;;;;;;4977463;28;20049;-79
2022/04/05 04:27:24;;;;;;;5.15;2.65;;;7.60;99.90;;;;;;4996356;28;20042;-79
2022/04/05 04:29:50;;;;;;;11.15;2.25;;;7.60;99.90;;;;;;4996236;28;20053;-79
2022/04/05 04:32:15;;;;;;;12.43;4.18;;;7.60;99.90;;;;;;4978114;28;20078;-79
2022/04/05 04:34:41;;;;;;;6.60;2.53;;;7.60;99.90;;;;;;4979083;28;20059;-79
2022/04/05 04:37:07;;;;;;;11.18;3.38;;;7.60;99.90;;;;;;4996648;28;20117;-79
2022/04/05 04:39:33;;;;;;;8.45;3.60;;;7.60;99.90;;;;;;4995583;28;20053;-79
2022/04/05 04:41:59;;;;;;;21.27;3.47;;;7.60;99.90;;;;;;4994248;28;20097;-79
2022/04/05 04:44:25;;;;;;;8.93;3.03;;;7.50;99.90;;;;;;4975749;28;20593;-79
2022/04/05 04:46:51;;;;;;;6.15;2.17;;;7.60;99.90;;;;;;5014345;28;20623;-79
2022/04/05 04:49:17;;;;;;;5.55;2.58;;;7.50;99.90;;;;;;5019438;28;20126;-79
2022/04/05 04:51:43;;;;;;;7.18;1.85;;;7.50;99.90;;;;;;5018813;28;20049;-79
2022/04/05 04:54:08;;;;;;;11.40;3.35;;;7.60;99.90;;;;;;5011294;28;20057;-79
2022/04/05 04:56:34;;;;;;;8.02;3.13;;;7.60;99.90;;;;;;4996111;28;20157;-79
2022/04/05 04:58:59;;;;;;;9.93;3.03;;;7.50;99.90;;;;;;4979568;28;20054;-78
2022/04/05 05:01:25;;;;;;;6.72;2.30;;;7.50;99.90;;;;;;4996358;28;20069;-79
2022/04/05 05:03:51;;;;;;;7.93;2.38;;;7.60;99.90;;;;;;4996830;28;20079;-79
2022/04/05 05:06:17;;;;;;;10.65;3.47;;;7.60;99.90;;;;;;4979296;28;20157;-78
2022/04/05 05:08:43;;;;;;;7.70;2.20;;;7.60;99.90;;;;;;4995795;28;20054;-78
2022/04/05 05:11:10;;;;;;;13.90;2.83;;;7.60;99.90;;;;;;4996897;28;20604;-78
2022/04/05 05:13:36;;;;;;;9.07;3.15;;;7.60;99.90;;;;;;4996334;28;20057;-78
2022/04/05 05:16:01;;;;;;;8.15;2.65;;;7.60;99.90;;;;;;4996831;28;20042;-76
2022/04/05 05:18:27;;;;;;;5.82;2.60;;;7.60;99.90;;;;;;5001990;28;20147;-78
2022/04/05 05:20:53;;;;;;;6.53;2.00;;;7.60;99.90;;;;;;4997302;28;20790;-78
2022/04/05 05:23:19;;;;;;;10.02;2.45;;;7.60;99.90;;;;;;5014543;28;20085;-79
2022/04/05 05:25:46;;;;;;;9.15;2.60;;;7.60;99.90;;;;;;5015023;28;20081;-79
2022/04/05 05:28:12;;;;;;;10.18;2.72;;;7.60;99.90;;;;;;4994263;28;20088;-77
2022/04/05 05:30:37;;;;;;;7.18;3.10;;;7.60;99.90;;;;;;5015772;28;20550;-77
2022/04/05 05:33:03;;;;;;;10.70;2.85;;;7.70;99.90;;;;;;5015423;28;20057;-78
2022/04/05 05:35:29;;;;;;;9.10;4.35;;;7.70;99.90;;;;;;4997128;28;20049;-78
2022/04/05 05:37:56;;;;;;;6.85;2.60;;;7.60;99.90;;;;;;5015383;28;20056;-78
2022/04/05 05:40:22;;;;;;;10.15;2.13;;;7.70;99.90;;;;;;4996751;28;20049;-78
2022/04/05 05:42:52;;;;;;;6.53;2.78;;;7.70;99.90;;;;;;5013771;28;20045;-78
2022/04/05 05:45:20;;;;;;;7.22;2.20;;;7.70;99.90;;;;;;5012659;28;20152;-78
2022/04/05 05:47:46;;;;;;;10.95;3.60;;;7.70;99.90;;;;;;5033229;28;20129;-79
2022/04/05 05:50:13;;;;;;;3.10;2.38;;;7.80;99.90;;;;;;5035121;28;20053;-79
2022/04/05 05:52:40;;;;;;;5.10;2.03;;;7.80;99.90;;;;;;5035243;28;20132;-78
2022/04/05 05:55:07;;;;;;;4.70;2.45;;;7.80;99.90;;;;;;4978843;28;20064;-79
2022/04/05 05:57:33;;;;;;;5.40;3.03;;;7.70;99.90;;;;;;5013290;28;20041;-79
2022/04/05 05:59:59;;;;;;;10.82;2.72;;;7.80;99.90;;;;;;5015652;28;20084;-78
2022/04/05 06:02:25;;;;;;;5.78;2.80;;;7.80;99.90;;;;;;4997802;28;20049;-79
2022/04/05 06:04:50;;;;;;;4.90;2.13;;;7.80;99.90;;;;;;5013787;28;20594;-79
2022/04/05 06:07:16;;;;;;;5.63;2.08;;;7.90;99.90;;;;;;5015650;28;20057;-79
2022/04/05 06:09:42;;;;;;;7.45;2.38;;;7.90;99.90;;;;;;4997376;28;20057;-79
2022/04/05 06:12:08;;;;;;;4.88;2.60;;;7.90;99.90;;;;;;5013995;28;20049;-78
2022/04/05 06:14:33;;;;;;;6.63;4.07;;;7.90;99.90;;;;;;5013838;28;20056;-78
2022/04/05 06:16:59;;;;;;;6.35;2.55;;;7.90;99.90;;;;;;5013342;28;20588;-78
2022/04/05 06:19:24;;;;;;;7.53;2.65;;;7.90;99.90;;;;;;5015434;28;20042;-79
2022/04/05 06:21:50;;;;;;;10.82;3.65;;;7.90;99.90;;;;;;5014908;28;20125;-78
2022/04/05 06:24:15;;;;;;;7.30;2.50;;;8.00;99.90;;;;;;5015428;28;20045;-77
2022/04/05 06:26:41;;;;;;;9.35;3.20;;;8.00;99.90;;;;;;4998132;28;20056;-78
2022/04/05 06:29:06;;;;;;;11.52;5.22;;;8.00;99.90;;;;;;5012526;28;20057;-78
2022/04/05 06:31:32;;;;;;;5.50;3.30;;;8.10;99.90;;;;;;4994088;28;20048;-78
2022/04/05 06:33:58;;;;;;;4.28;2.55;;;8.10;99.90;;;;;;5012483;28;20089;-78
2022/04/05 06:36:24;;;;;;;5.95;2.55;;;8.10;99.90;;;;;;5012309;28;20045;-76
2022/04/05 06:38:49;;;;;;;5.10;2.30;;;8.10;99.90;;;;;;5012375;28;20045;-77
2022/04/05 06:41:15;;;;;;;4.85;2.42;;;8.10;99.90;;;;;;5014673;28;20143;-78
2022/04/05 06:43:41;;;;;;;3.33;2.05;;;8.20;99.90;;;;;;4997429;28;20496;-78
2022/04/05 06:46:07;;;;;;;4.95;3.00;;;8.30;99.90;;;;;;5018561;28;20043;-78
2022/04/05 06:48:32;;;;;;;5.40;2.13;;;8.30;99.90;;;;;;5034149;28;20759;-77
2022/04/05 06:50:58;;;;;;;7.07;2.85;;;8.30;99.90;;;;;;5014220;28;20103;-77
2022/04/05 06:53:23;;;;;;;9.15;2.72;;;8.40;99.90;;;;;;4993593;28;20037;-78
2022/04/05 06:55:49;;;;;;;9.10;2.58;;;8.50;99.90;;;;;;5011912;28;20056;-77
2022/04/05 06:58:14;;;;;;;7.13;2.78;;;8.50;99.90;;;;;;5012439;28;20709;-77
2022/04/05 07:00:40;;;;;;;8.27;2.40;;;8.50;99.90;;;;;;5013449;28;20362;-78
2022/04/05 07:03:06;;;;;;;5.38;2.42;;;8.70;99.90;;;;;;4993554;28;20854;-77
2022/04/05 07:05:32;;;;;;;7.20;2.65;;;8.80;99.90;;;;;;5012228;28;20069;-78
2022/04/05 07:07:57;;;;;;;10.23;2.67;;;9.00;99.90;;;;;;5012193;28;20756;-77
2022/04/05 07:10:23;;;;;;;8.38;2.67;;;9.00;99.90;;;;;;5011860;28;20107;-77
2022/04/05 07:12:49;;;;;;;6.10;3.15;;;9.10;99.90;;;;;;5012187;28;20049;-78
2022/04/05 07:15:16;;;;;;;4.30;2.47;;;9.00;99.90;;;;;;4993713;28;20167;-77
2022/04/05 07:17:42;;;;;;;3.47;2.25;;;9.00;99.90;;;;;;5011917;28;20060;-76
2022/04/05 07:20:09;;;;;;;5.07;3.00;;;9.00;99.90;;;;;;4993595;28;20056;-77
2022/04/05 07:22:36;;;;;;;5.20;3.13;;;9.00;99.90;;;;;;5011865;28;20038;-76
2022/04/05 07:25:03;;;;;;;7.50;2.97;;;9.00;99.90;;;;;;4994854;28;20111;-77
2022/04/05 07:27:29;;;;;;;6.88;2.30;;;9.00;99.90;;;;;;5012106;28;20075;-77
2022/04/05 07:29:54;;;;;;;6.43;2.88;;;9.10;99.90;;;;;;4994985;28;20152;-77
2022/04/05 07:32:20;;;;;;;4.75;2.72;;;9.10;99.90;;;;;;5012089;28;20049;-77
2022/04/05 07:34:46;;;;;;;2.72;1.70;;;9.10;99.90;;;;;;5011730;28;20085;-77
2022/04/05 07:37:11;;;;;;;3.00;2.42;;;9.10;99.90;;;;;;5009818;28;20125;-77
2022/04/05 07:39:42;;;;;;;6.20;2.53;;;9.10;99.90;;;;;;5013259;28;20053;-77
2022/04/05 07:42:08;;;;;;;6.53;1.95;;;9.10;99.90;;;;;;4996037;28;20140;-78
2022/04/05 07:44:34;;;;;;;4.10;2.38;;;9.00;99.90;;;;;;4995440;28;20981;-78
2022/04/05 07:47:00;;;;;;;7.25;1.95;;;9.00;99.90;;;;;;5025752;28;20122;-77
2022/04/05 07:49:26;;;;;;;2.97;1.75;;;9.00;99.90;;;;;;5020947;28;20092;-77
2022/04/05 07:51:52;;;;;;;4.22;2.25;;;9.00;99.90;;;;;;4662340;28;10000640;-77
2022/04/05 07:54:18;;;;;;;4.90;2.13;;;9.00;99.90;;;;;;4985439;28;20062;-77
2022/04/05 07:56:43;;;;;;;6.97;2.20;;;8.90;99.90;;;;;;5019826;28;20052;-75
2022/04/05 07:59:09;;;;;;;7.03;2.67;;;8.90;99.90;;;;;;5010047;28;20052;-75
2022/04/05 08:01:35;;;;;;;3.38;2.50;;;8.90;99.90;;;;;;4991614;28;20148;-75
2022/04/05 08:04:00;;;;;;;3.78;2.35;;;8.90;99.90;;;;;;5008666;28;20372;-75
2022/04/05 08:06:28;;;;;;;6.68;2.58;;;8.90;99.90;;;;;;4989448;28;20045;-75
2022/04/05 08:08:53;;;;;;;5.22;2.08;;;9.00;99.90;;;;;;5009557;28;20057;-74
2022/04/05 08:11:19;;;;;;;6.47;2.28;;;8.90;99.90;;;;;;4991051;28;20567;-74
2022/04/05 08:13:45;;;;;;;2.60;2.15;;;9.00;99.90;;;;;;5008690;28;20052;-74
2022/04/05 08:16:11;;;;;;;6.22;2.30;;;8.40;99.90;;;;;;4990694;28;21037;-75
2022/04/05 08:18:36;;;;;;;4.53;3.30;;;9.00;99.90;;;;;;4991317;28;20107;-75
2022/04/05 08:21:02;;;;;;;4.70;2.40;;;9.00;99.90;;;;;;5013874;28;20041;-75
2022/04/05 08:23:27;;;;;;;5.03;2.53;;;9.10;99.90;;;;;;5013898;28;20044;-76
2022/04/05 08:25:53;;;;;;;5.10;2.95;;;9.20;99.90;;;;;;4997960;28;20178;-76
2022/04/05 08:28:19;;;;;;;3.30;2.25;;;9.20;99.90;;;;;;5013702;28;20042;-75
2022/04/05 08:30:45;;;;;;;5.00;2.35;;;9.20;99.90;;;;;;5006266;28;20577;-75
2022/04/05 08:33:11;;;;;;;2.50;2.30;;;9.30;99.90;;;;;;5017620;28;20042;-76
2022/04/05 08:35:39;;;;;;;3.85;3.13;;;9.40;99.90;;;;;;5016666;28;20114;-76
2022/04/05 08:38:05;;;;;;;3.80;2.17;;;9.40;99.90;;;;;;4998836;28;20049;-75
2022/04/05 08:40:31;;;;;;;3.28;1.40;;;9.40;99.90;;;;;;4999292;28;20127;-75
2022/04/05 08:42:57;;;;;;;4.18;2.38;;;9.50;99.90;;;;;;5016383;28;20555;-75
2022/04/05 08:45:24;;;;;;;6.25;2.00;;;9.40;99.90;;;;;;5016073;28;20779;-76
2022/04/05 08:47:53;;;;;;;5.65;2.15;;;9.50;99.90;;;;;;5017595;28;20114;-74
2022/04/05 08:50:25;;;;;;;3.17;2.45;;;9.40;99.90;;;;;;5013544;28;20044;-75
2022/04/05 08:52:51;;;;;;;3.42;2.95;;;9.50;99.90;;;;;;5015899;28;20450;-76
2022/04/05 08:55:18;;;;;;;8.77;1.98;;;9.60;99.90;;;;;;5015488;28;20078;-76
2022/04/05 08:57:44;;;;;;;3.85;2.15;;;9.70;99.90;;;;;;5014862;28;20116;-76
2022/04/05 09:00:12;;;;;;;5.00;1.90;;;9.90;99.90;;;;;;5013088;28;20037;-76
2022/04/05 09:02:38;;;;;;;3.65;1.80;;;10.10;99.90;;;;;;4996420;28;20045;-76
2022/04/05 09:05:04;;;;;;;5.72;2.53;;;10.40;99.90;;;;;;4997138;28;20053;-76
2022/04/05 09:07:32;;;;;;;2.63;1.85;;;10.50;99.90;;;;;;4995973;28;20046;-77
2022/04/05 09:10:15;;;;;;;4.70;1.90;;;10.60;99.90;;;;;;5014661;28;20061;-76
2022/04/05 09:12:45;;;;;;;4.57;1.60;;;10.70;99.90;;;;;;5012979;28;20041;-81
2022/04/05 09:15:24;;;;;;;8.73;1.73;;;10.70;99.90;;;;;;4998739;28;20049;-81
2022/04/05 09:17:51;;;;;;;2.47;1.80;;;10.40;99.90;;;;;;5016809;28;20050;-75
2022/04/05 09:20:19;;;;;;;3.25;1.58;;;10.50;99.90;;;;;;4998170;28;20141;-77
2022/04/05 09:22:45;;;;;;;5.25;1.75;;;10.40;99.90;;;;;;4999659;28;20053;-79
2022/04/05 09:25:15;;;;;;;4.38;1.63;;;10.50;99.90;;;;;;5015421;28;20046;-77
2022/04/05 09:27:49;;;;;;;2.35;1.63;;;10.50;99.90;;;;;;5015242;28;20045;-77
2022/04/05 09:30:18;;;;;;;3.13;1.50;;;10.60;99.90;;;;;;5013653;28;20045;-77
2022/04/05 09:32:47;;;;;;;3.58;1.50;;;10.70;99.90;;;;;;4996530;28;20060;-78
2022/04/05 09:35:15;;;;;;;4.75;1.88;;;10.60;99.90;;;;;;4996410;28;20160;-78
2022/04/05 09:37:41;;;;;;;1.90;1.55;;;10.50;99.90;;;;;;4994021;28;20123;-78
2022/04/05 09:40:32;;;;;;;4.00;1.45;;;10.60;99.90;;;;;;5015108;28;20059;-77
2022/04/05 09:43:04;;;;;;;2.03;1.17;;;10.30;99.90;;;;;;5013921;28;20704;-78
2022/04/05 09:45:53;;;;;;;1.50;1.40;;;10.40;99.90;;;;;;4661935;28;9999892;-78
2022/04/05 09:48:30;;;;;;;1.95;1.13;;;10.30;99.90;;;;;;5010658;28;20564;-78
2022/04/05 09:51:05;;;;;;;2.85;1.65;;;10.30;99.90;;;;;;5010982;28;20048;-77
2022/04/05 09:53:41;;;;;;;2.78;1.23;;;10.60;99.90;;;;;;4993891;28;20485;-78
2022/04/05 09:56:15;;;;;;;3.03;2.00;;;10.20;99.90;;;;;;5012656;28;20053;-74
2022/04/05 09:59:03;;;;;;;3.05;1.30;;;10.10;99.90;;;;;;4994488;28;20936;-77
2022/04/05 10:01:29;;;;;;;4.32;2.25;;;10.10;99.90;;;;;;5012148;28;20746;-76
2022/04/05 10:04:19;;;;;;;2.92;1.65;;;10.10;99.90;;;;;;5012502;28;20037;-77
2022/04/05 10:06:47;;;;;;;2.97;1.48;;;10.00;99.90;;;;;;4994003;28;20092;-76
2022/04/05 10:09:18;;;;;;;1.60;1.33;;;10.10;99.90;;;;;;5010445;28;20057;-77
2022/04/05 10:11:45;;;;;;;3.83;2.50;;;10.00;99.90;;;;;;4992721;28;20848;-76
2022/04/05 10:14:20;;;;;;;1.63;1.35;;;9.90;99.90;;;;;;5008809;28;20049;-75
2022/04/05 10:16:45;;;;;;;8.40;2.28;;;10.10;99.90;;;;;;5009152;28;20915;-76
2022/04/05 10:19:11;;;;;;;2.00;1.30;;;10.10;99.90;;;;;;5009879;28;20045;-76
2022/04/05 10:21:39;;;;;;;3.55;1.50;;;10.10;99.90;;;;;;4991617;28;20811;-77
2022/04/05 10:24:06;;;;;;;2.42;1.67;;;10.20;99.90;;;;;;4990654;28;20697;-74
2022/04/05 10:26:38;;;;;;;1.75;1.10;;;10.00;99.90;;;;;;4994405;28;20295;-77
2022/04/05 10:29:15;;;;;;;1.83;1.27;;;10.10;99.90;;;;;;5008508;28;20365;-76
2022/04/05 10:32:06;;;;;;;1.67;1.05;;;10.10;99.90;;;;;;5009957;28;20050;-80
2022/04/05 10:34:41;;;;;;;2.05;1.27;;;10.10;99.90;;;;;;5011825;28;20796;-77
2022/04/05 10:37:18;;;;;;;2.10;1.27;;;10.10;99.90;;;;;;5013639;28;20045;-77
2022/04/05 10:39:56;;;;;;;2.35;1.30;;;10.10;99.90;;;;;;5013552;28;20564;-77
2022/04/05 10:42:24;;;;;;;1.98;1.27;;;10.20;99.90;;;;;;5013261;28;20045;-77
2022/04/05 10:45:07;;;;;;;2.15;1.45;;;10.20;99.90;;;;;;5011170;28;20053;-78
2022/04/05 10:47:33;;;;;;;1.95;1.10;;;10.30;99.90;;;;;;5014591;28;20056;-79
2022/04/05 10:50:15;;;;;;;1.90;0.98;;;10.20;99.90;;;;;;5018759;28;20587;-77
2022/04/05 10:52:46;;;;;;;1.65;1.00;;;10.10;99.90;;;;;;4992577;28;20060;-79
2022/04/05 10:55:12;;;;;;;3.25;0.82;;;10.20;99.90;;;;;;5010132;28;20057;-78
2022/04/05 10:57:39;;;;;;;2.35;1.13;;;10.30;99.90;;;;;;5011606;28;20989;-76
2022/04/05 11:00:23;;;;;;;2.20;0.95;;;10.30;99.90;;;;;;5012997;28;20084;-77
2022/04/05 11:02:51;;;;;;;2.70;0.93;;;10.40;99.90;;;;;;5011670;28;20148;-77
2022/04/05 11:05:18;;;;;;;2.22;1.17;;;10.50;99.90;;;;;;4975748;28;20046;-76
2022/04/05 11:07:59;;;;;;;1.10;0.93;;;10.70;99.90;;;;;;4977453;28;20054;-77
2022/04/05 11:10:27;;;;;;;2.20;1.00;;;10.90;99.90;;;;;;4994402;28;20089;-77
2022/04/05 11:13:02;;;;;;;1.10;1.00;;;11.10;99.90;;;;;;4993887;28;20045;-77
2022/04/05 11:15:42;;;;;;;1.55;0.90;;;11.10;99.90;;;;;;4993994;28;20057;-77
2022/04/05 11:18:10;;;;;;;3.67;1.20;;;11.00;99.90;;;;;;4994405;28;20047;-76
2022/04/05 11:20:38;;;;;;;1.35;1.20;;;11.00;99.90;;;;;;4975867;28;20069;-76
2022/04/05 11:23:05;;;;;;;1.02;0.90;;;11.10;99.90;;;;;;4980132;28;20049;-76
2022/04/05 11:25:31;;;;;;;1.20;1.10;;;11.10;99.90;;;;;;4996859;28;20050;-77
2022/04/05 11:28:16;;;;;;;1.27;1.17;;;11.10;99.90;;;;;;4994775;28;20100;-77
2022/04/05 11:31:02;;;;;;;1.60;1.50;;;11.30;99.90;;;;;;4996048;28;20057;-76
2022/04/05 11:33:34;;;;;;;2.25;1.10;;;11.70;99.90;;;;;;5009288;28;20045;-77
2022/04/05 11:36:04;;;;;;;1.00;0.90;;;11.90;99.90;;;;;;5014622;28;20049;-77
2022/04/05 11:38:37;;;;;;;2.40;1.27;;;11.80;99.90;;;;;;4996924;28;20056;-77
2022/04/05 11:41:19;;;;;;;1.20;0.80;;;11.90;99.90;;;;;;4996148;28;20854;-75
2022/04/05 11:43:46;;;;;;;1.40;1.23;;;11.80;99.90;;;;;;5011395;28;20736;-75
2022/04/05 11:46:27;;;;;;;1.58;1.00;;;11.80;99.90;;;;;;4994620;28;20045;-72
2022/04/05 11:48:58;;;;;;;1.20;1.10;;;11.70;99.90;;;;;;5009051;28;20041;-76
2022/04/05 11:51:27;;;;;;;2.35;1.20;;;11.60;99.90;;;;;;5013813;28;20107;-76
2022/04/05 11:54:06;;;;;;;1.80;1.10;;;11.60;99.90;;;;;;5009506;28;20049;-76
2022/04/05 11:56:34;;;;;;;1.83;1.23;;;11.50;99.90;;;;;;4992522;28;20147;-77
2022/04/05 11:59:01;;;;;;;1.25;0.90;;;11.50;99.90;;;;;;4993992;28;20148;-77
2022/04/05 12:01:29;;;;;;;0.80;0.80;;;11.50;99.90;;;;;;4994397;28;20587;-77
2022/04/05 12:03:57;;;;;;;0.95;0.95;;;11.70;99.90;;;;;;5013831;28;20048;-77
2022/04/05 12:06:32;;;;;;;1.33;1.23;;;11.80;99.90;;;;;;4996898;28;20061;-77
2022/04/05 12:09:02;;;;;;;0.95;0.88;;;11.90;99.90;;;;;;5013150;28;20149;-76
2022/04/05 12:11:30;;;;;;;3.17;0.93;;;11.90;99.90;;;;;;4994844;28;20485;-77
2022/04/05 12:13:58;;;;;;;1.10;1.00;;;11.90;99.90;;;;;;5012502;28;20114;-76
2022/04/05 12:16:27;;;;;;;1.05;1.00;;;11.90;99.90;;;;;;4995441;28;20156;-77
2022/04/05 12:18:54;;;;;;;0.90;0.90;;;12.00;99.90;;;;;;5014375;28;20136;-76
2022/04/05 12:21:21;;;;;;;2.05;1.67;;;12.00;99.90;;;;;;4996303;28;20056;-78
2022/04/05 12:23:48;;;;;;;0.88;0.88;;;12.10;99.90;;;;;;5013302;28;20060;-78
2022/04/05 12:26:15;;;;;;;1.23;1.13;;;12.10;99.90;;;;;;4996342;28;20061;-77
2022/04/05 12:28:44;;;;;;;1.45;1.23;;;12.00;99.90;;;;;;4993975;28;20170;-76
2022/04/05 12:31:19;;;;;;;2.88;1.10;;;12.00;99.90;;;;;;5010196;28;20046;-76
2022/04/05 12:34:05;;;;;;;1.38;1.27;;;11.90;99.90;;;;;;4993469;28;20132;-77
2022/04/05 12:36:39;;;;;;;1.42;1.27;;;11.90;99.90;;;;;;4992638;28;20059;-76
2022/04/05 12:39:24;;;;;;;1.25;1.17;;;12.00;99.90;;;;;;5010921;28;20045;-76
2022/04/05 12:41:53;;;;;;;1.98;1.77;;;11.90;99.90;;;;;;5010898;28;20038;-76
2022/04/05 12:44:26;;;;;;;1.67;1.40;;;11.90;99.90;;;;;;5008278;28;20532;-76
2022/04/05 12:46:57;;;;;;;;;;;12.00;99.90;;;;;;4995608;28;20076;-76
2022/04/05 12:49:38;;;;;;;1.83;1.30;;;11.90;99.90;;;;;;5012722;28;19936;-76
2022/04/05 12:52:12;;;;;;;1.58;1.38;;;12.00;99.90;;;;;;5010051;28;20087;-77
2022/04/05 12:54:47;;;;;;;1.75;1.63;;;12.10;99.90;;;;;;4992749;28;20057;-77
2022/04/05 12:57:27;;;;;;;2.38;1.48;;;12.00;99.90;;;;;;4996543;28;20092;-79